createdAt,value
2019-04-04T00:02:17.087Z,45.03
2019-04-04T00:04:47.399Z,47.00
2019-04-04T00:07:17.692Z,46.10
2019-04-04T00:09:47.845Z,46.23
2019-04-04T00:12:18.283Z,48.77
2019-04-04T00:14:48.356Z,45.03
2019-04-04T00:17:18.611Z,42.87
2019-04-04T00:19:48.879Z,46.07
2019-04-04T00:22:19.084Z,45.43
2019-04-04T00:24:49.389Z,45.27
2019-04-04T00:27:19.658Z,46.03
2019-04-04T00:29:49.815Z,42.10
2019-04-04T00:32:20.968Z,43.03
2019-04-04T00:34:51.981Z,43.97
2019-04-04T00:37:22.202Z,40.90
2019-04-04T00:39:52.475Z,43.13
2019-04-04T00:42:22.803Z,40.03
2019-04-04T00:44:53.916Z,41.47
2019-04-04T00:47:25.088Z,40.57
2019-04-04T00:49:55.423Z,39.80
2019-04-04T00:52:25.923Z,38.83
2019-04-04T00:54:57.181Z,39.50
2019-04-04T00:57:27.471Z,41.33
2019-04-04T00:59:57.645Z,37.63
2019-04-04T01:02:27.978Z,37.83
2019-04-04T01:05:01.216Z,38.93
2019-04-04T01:07:30.049Z,41.00
2019-04-04T01:10:00.332Z,36.87
2019-04-04T01:12:30.427Z,38.30
2019-04-04T01:15:00.740Z,38.70
2019-04-04T01:17:30.990Z,40.00
2019-04-04T01:20:01.321Z,38.47
2019-04-04T01:22:31.538Z,37.63
2019-04-04T01:25:01.884Z,36.50
2019-04-04T01:27:32.132Z,35.30
2019-04-04T01:30:02.414Z,36.40
2019-04-04T01:32:32.669Z,36.07
2019-04-04T01:35:02.878Z,34.63
2019-04-04T01:37:33.007Z,33.00
2019-04-04T01:40:03.184Z,32.77
2019-04-04T01:42:33.335Z,34.83
2019-04-04T01:45:03.530Z,34.27
2019-04-04T01:47:33.783Z,33.63
2019-04-04T01:50:03.899Z,33.43
2019-04-04T01:52:34.148Z,30.07
2019-04-04T01:55:04.361Z,33.83
2019-04-04T01:57:38.653Z,30.57
2019-04-04T02:00:09.956Z,30.97
2019-04-04T02:02:40.228Z,29.97
2019-04-04T02:05:10.979Z,31.10
2019-04-04T02:07:41.309Z,29.83
2019-04-04T02:10:11.973Z,31.17
2019-04-04T02:12:42.186Z,29.33
2019-04-04T02:15:14.272Z,30.53
2019-04-04T02:17:44.387Z,30.13
2019-04-04T02:20:14.669Z,28.50
2019-04-04T02:22:44.937Z,29.47
2019-04-04T02:25:15.250Z,29.47
2019-04-04T02:27:48.508Z,27.63
2019-04-04T02:30:18.711Z,25.40
2019-04-04T02:32:48.894Z,27.67
2019-04-04T02:35:19.003Z,27.03
2019-04-04T02:37:49.219Z,28.33
2019-04-04T02:40:19.447Z,27.70
2019-04-04T02:42:54.144Z,27.40
2019-04-04T02:45:21.582Z,27.43
2019-04-04T02:47:53.623Z,27.70
2019-04-04T02:50:23.969Z,27.03
2019-04-04T02:52:54.352Z,26.07
2019-04-04T02:55:24.610Z,25.27
2019-04-04T02:57:54.786Z,23.37
2019-04-04T03:00:27.701Z,24.77
2019-04-04T03:02:59.946Z,25.87
2019-04-04T03:05:31.345Z,25.03
2019-04-04T03:08:04.581Z,26.33
2019-04-04T03:10:35.128Z,24.57
2019-04-04T03:13:07.573Z,25.07
2019-04-04T03:15:41.323Z,23.80
2019-04-04T03:18:10.334Z,23.30
2019-04-04T03:20:40.814Z,22.13
2019-04-04T03:23:11.661Z,21.83
2019-04-04T03:25:41.916Z,22.47
2019-04-04T03:28:12.081Z,22.70
2019-04-04T03:30:42.361Z,23.33
2019-04-04T03:33:12.564Z,23.67
2019-04-04T03:35:42.704Z,24.53
2019-04-04T03:38:13.478Z,22.33
2019-04-04T03:40:44.264Z,24.10
2019-04-04T03:43:16.206Z,25.17
2019-04-04T03:45:46.328Z,24.70
2019-04-04T03:48:17.583Z,24.60
2019-04-04T03:50:48.368Z,25.20
2019-04-04T03:53:20.503Z,27.73
2019-04-04T03:55:50.658Z,24.23
2019-04-04T03:58:20.930Z,27.40
2019-04-04T04:00:51.199Z,27.33
2019-04-04T04:03:23.483Z,29.17
2019-04-04T04:05:53.904Z,29.20
2019-04-04T04:08:24.167Z,28.17
2019-04-04T04:10:54.281Z,27.47
2019-04-04T04:13:24.456Z,24.53
2019-04-04T04:15:54.647Z,25.90
2019-04-04T04:18:24.854Z,26.20
2019-04-04T04:20:55.080Z,26.07
2019-04-04T04:23:25.293Z,25.63
2019-04-04T04:25:55.483Z,26.03
2019-04-04T04:28:25.742Z,23.03
2019-04-04T04:30:55.969Z,24.30
2019-04-04T04:33:28.820Z,23.13
2019-04-04T04:35:58.095Z,25.73
2019-04-04T04:38:28.403Z,24.47
2019-04-04T04:40:58.625Z,24.70
2019-04-04T04:43:32.179Z,22.87
2019-04-04T04:46:00.712Z,26.07
2019-04-04T04:48:31.880Z,24.17
2019-04-04T04:51:02.289Z,23.27
2019-04-04T04:53:32.624Z,25.60
2019-04-04T04:56:02.886Z,24.53
2019-04-04T04:58:33.030Z,25.23
2019-04-04T05:01:03.277Z,23.50
2019-04-04T05:03:33.527Z,26.70
2019-04-04T05:06:03.805Z,26.33
2019-04-04T05:08:34.091Z,24.20
2019-04-04T05:11:04.290Z,25.70
2019-04-04T05:13:34.531Z,24.47
2019-04-04T05:16:08.624Z,26.07
2019-04-04T05:18:36.748Z,26.13
2019-04-04T05:21:07.051Z,26.83
2019-04-04T05:23:37.460Z,25.20
2019-04-04T05:26:09.678Z,25.83
2019-04-04T05:28:42.905Z,28.43
2019-04-04T05:31:13.173Z,30.47
2019-04-04T05:33:43.378Z,28.27
2019-04-04T05:36:13.580Z,26.47
2019-04-04T05:38:46.970Z,26.90
2019-04-04T05:41:16.539Z,27.17
2019-04-04T05:43:49.119Z,27.50
2019-04-04T05:46:19.750Z,27.20
2019-04-04T05:48:50.818Z,29.90
2019-04-04T05:51:21.081Z,26.87
2019-04-04T05:53:51.269Z,17.17
2019-04-04T05:56:24.127Z,13.53
2019-04-04T05:58:53.784Z,15.07
2019-04-04T06:01:24.072Z,14.93
2019-04-04T06:03:54.417Z,13.40
2019-04-04T06:06:24.703Z,11.40
2019-04-04T06:08:55.785Z,12.17
2019-04-04T06:11:25.985Z,12.77
2019-04-04T06:13:57.012Z,13.97
2019-04-04T06:16:29.061Z,15.80
2019-04-04T06:18:59.180Z,17.60
2019-04-04T06:21:29.446Z,18.33
2019-04-04T06:23:59.673Z,18.63
2019-04-04T06:26:29.893Z,16.50
2019-04-04T06:29:00.102Z,14.03
2019-04-04T06:31:30.910Z,14.40
2019-04-04T06:34:01.303Z,11.77
2019-04-04T06:36:31.630Z,12.57
2019-04-04T06:39:01.884Z,13.03
2019-04-04T06:41:32.805Z,14.07
2019-04-04T06:44:03.241Z,14.30
2019-04-04T06:46:35.302Z,14.77
2019-04-04T06:49:05.577Z,17.27
2019-04-04T06:51:35.767Z,15.40
2019-04-04T06:54:06.172Z,16.23
2019-04-04T06:56:36.441Z,16.27
2019-04-04T06:59:06.708Z,15.40
2019-04-04T07:01:37.962Z,15.03
2019-04-04T07:04:08.229Z,11.67
2019-04-04T07:06:41.649Z,11.80
2019-04-04T07:09:13.496Z,10.83
2019-04-04T07:11:43.245Z,11.03
2019-04-04T07:14:13.446Z,8.77
2019-04-04T07:16:43.648Z,8.43
2019-04-04T07:19:15.089Z,8.33
2019-04-04T07:21:45.346Z,8.57
2019-04-04T07:24:15.607Z,7.13
2019-04-04T07:26:46.121Z,6.73
2019-04-04T07:29:16.478Z,7.33
2019-04-04T07:31:46.638Z,6.57
2019-04-04T07:34:16.986Z,6.70
2019-04-04T07:36:47.219Z,6.20
2019-04-04T07:39:18.287Z,5.73
2019-04-04T07:41:48.549Z,5.03
2019-04-04T07:44:21.150Z,4.70
2019-04-04T07:46:54.175Z,4.53
2019-04-04T07:49:25.954Z,3.90
2019-04-04T07:51:56.790Z,4.47
2019-04-04T07:54:26.985Z,4.60
2019-04-04T07:56:57.139Z,4.63
2019-04-04T07:59:27.422Z,4.37
2019-04-04T08:01:57.645Z,5.33
2019-04-04T08:04:27.864Z,4.50
2019-04-04T08:06:58.106Z,4.00
2019-04-04T08:09:28.571Z,4.10
2019-04-04T08:11:58.666Z,3.70
2019-04-04T08:14:29.006Z,3.83
2019-04-04T08:16:59.379Z,3.33
2019-04-04T08:19:29.429Z,2.53
2019-04-04T08:21:59.644Z,2.70
2019-04-04T08:24:29.827Z,2.13
2019-04-04T08:27:00.005Z,2.30
2019-04-04T08:29:30.279Z,1.40
2019-04-04T08:32:00.486Z,1.40
2019-04-04T08:34:30.910Z,1.73
2019-04-04T08:37:01.198Z,1.40
2019-04-04T08:39:31.483Z,1.47
2019-04-04T08:42:01.591Z,2.90
2019-04-04T08:44:31.857Z,1.47
2019-04-04T08:47:02.202Z,1.73
2019-04-04T08:49:32.422Z,1.47
2019-04-04T08:52:02.732Z,1.40
2019-04-04T08:54:32.960Z,1.20
2019-04-04T08:57:03.060Z,1.43
2019-04-04T08:59:33.289Z,1.30
2019-04-04T09:02:04.183Z,1.30
2019-04-04T09:04:34.606Z,1.43
2019-04-04T09:07:05.968Z,1.40
2019-04-04T09:09:37.162Z,1.77
2019-04-04T09:12:07.374Z,1.30
2019-04-04T09:14:40.935Z,1.40
2019-04-04T09:17:10.173Z,1.53
2019-04-04T09:19:41.109Z,1.63
2019-04-04T09:22:14.660Z,1.37
2019-04-04T09:24:44.918Z,1.13
2019-04-04T09:27:15.771Z,1.53
2019-04-04T09:29:46.075Z,1.20
2019-04-04T09:32:16.340Z,1.27
2019-04-04T09:34:46.706Z,1.30
2019-04-04T09:37:16.987Z,1.63
2019-04-04T09:39:47.206Z,1.10
2019-04-04T09:42:17.546Z,1.73
2019-04-04T09:44:47.769Z,1.07
2019-04-04T09:47:17.919Z,1.50
2019-04-04T09:49:48.090Z,1.33
2019-04-04T09:52:18.430Z,1.23
2019-04-04T09:54:48.546Z,2.03
2019-04-04T09:57:18.622Z,2.00
2019-04-04T09:59:48.940Z,1.43
2019-04-04T10:02:19.155Z,1.90
2019-04-04T10:04:49.324Z,2.23
2019-04-04T10:07:19.605Z,2.50
2019-04-04T10:09:49.884Z,2.67
2019-04-04T10:12:21.077Z,3.40
2019-04-04T10:14:51.416Z,4.10
2019-04-04T10:17:21.719Z,4.03
2019-04-04T10:19:51.944Z,4.13
2019-04-04T10:22:22.242Z,4.10
2019-04-04T10:24:52.518Z,4.17
2019-04-04T10:27:22.814Z,3.70
2019-04-04T10:29:53.098Z,4.00
2019-04-04T10:32:23.289Z,3.73
2019-04-04T10:34:53.498Z,3.33
2019-04-04T10:37:23.755Z,4.07
2019-04-04T10:39:54.023Z,4.60
2019-04-04T10:42:24.294Z,3.87
2019-04-04T10:44:54.726Z,3.57
2019-04-04T10:47:24.874Z,3.20
2019-04-04T10:49:55.114Z,2.63
2019-04-04T10:52:25.429Z,2.70
2019-04-04T10:54:55.683Z,2.70
2019-04-04T10:57:25.851Z,2.57
2019-04-04T10:59:55.975Z,2.20
2019-04-04T11:02:26.161Z,2.37
2019-04-04T11:04:56.242Z,2.10
2019-04-04T11:07:26.546Z,2.50
2019-04-04T11:09:56.825Z,2.90
2019-04-04T11:12:26.999Z,2.20
2019-04-04T11:14:59.266Z,2.37
2019-04-04T11:17:29.495Z,2.10
2019-04-04T11:20:00.746Z,1.90
2019-04-04T11:22:32.476Z,2.43
2019-04-04T11:25:06.002Z,2.60
2019-04-04T11:27:36.241Z,3.23
2019-04-04T11:30:08.194Z,2.70
2019-04-04T11:32:38.481Z,2.77
2019-04-04T11:35:09.281Z,4.27
2019-04-04T11:37:39.450Z,5.37
2019-04-04T11:40:09.778Z,4.10
2019-04-04T11:42:40.074Z,2.80
2019-04-04T11:45:10.435Z,3.00
2019-04-04T11:47:41.097Z,2.03
2019-04-04T11:50:11.489Z,2.50
2019-04-04T11:52:41.670Z,2.10
2019-04-04T11:55:11.909Z,2.30
2019-04-04T11:57:42.549Z,2.30
2019-04-04T12:00:17.794Z,2.20
2019-04-04T12:02:48.112Z,1.87
2019-04-04T12:05:18.438Z,2.00
2019-04-04T12:07:48.530Z,1.53
2019-04-04T12:10:18.849Z,1.60
2019-04-04T12:12:49.026Z,1.63
2019-04-04T12:15:20.339Z,1.40
2019-04-04T12:17:50.647Z,2.07
2019-04-04T12:20:20.859Z,3.17
2019-04-04T12:22:50.996Z,1.60
2019-04-04T12:25:21.231Z,2.40
2019-04-04T12:27:51.497Z,2.50
2019-04-04T12:30:21.775Z,4.07
2019-04-04T12:32:51.938Z,3.70
2019-04-04T12:35:22.143Z,3.20
2019-04-04T12:37:52.442Z,3.03
2019-04-04T12:40:22.689Z,4.10
2019-04-04T12:42:52.913Z,3.80
2019-04-04T12:45:23.231Z,2.07
2019-04-04T12:47:53.461Z,2.93
2019-04-04T12:50:23.635Z,2.40
2019-04-04T12:52:53.921Z,1.87
2019-04-04T12:55:24.139Z,2.27
2019-04-04T12:57:54.314Z,2.40
2019-04-04T13:00:24.559Z,1.73
2019-04-04T13:02:54.858Z,1.60
2019-04-04T13:05:25.105Z,1.80
2019-04-04T13:07:55.346Z,2.30
2019-04-04T13:10:32.810Z,2.70
2019-04-04T13:12:57.773Z,2.43
2019-04-04T13:15:27.898Z,2.83
2019-04-04T13:17:58.216Z,3.03
2019-04-04T13:20:28.499Z,2.73
2019-04-04T13:22:58.758Z,1.70
2019-04-04T13:25:29.031Z,2.00
2019-04-04T13:27:59.245Z,1.47
2019-04-04T13:30:29.484Z,0.90
2019-04-04T13:32:59.687Z,1.33
2019-04-04T13:35:29.921Z,1.80
2019-04-04T13:38:00.135Z,1.80
2019-04-04T13:40:30.388Z,2.13
2019-04-04T13:43:00.530Z,1.73
2019-04-04T13:45:30.685Z,1.80
2019-04-04T13:48:00.912Z,2.20
2019-04-04T13:50:31.153Z,2.03
2019-04-04T13:53:01.350Z,1.60
2019-04-04T13:55:31.622Z,2.07
2019-04-04T13:58:01.738Z,2.10
2019-04-04T14:00:31.918Z,1.83
2019-04-04T14:03:02.134Z,1.77
2019-04-04T14:05:32.348Z,2.20
2019-04-04T14:08:02.591Z,2.73
2019-04-04T14:10:32.973Z,2.70
2019-04-04T14:13:03.411Z,2.20
2019-04-04T14:15:33.542Z,2.40
2019-04-04T14:18:07.632Z,2.10
2019-04-04T14:20:38.684Z,2.77
2019-04-04T14:23:08.998Z,2.20
2019-04-04T14:25:39.162Z,2.40
2019-04-04T14:28:11.066Z,2.37
2019-04-04T14:30:44.218Z,2.20
2019-04-04T14:33:14.455Z,2.83
2019-04-04T14:35:44.585Z,2.87
2019-04-04T14:38:14.811Z,4.30
2019-04-04T14:40:44.982Z,9.47
2019-04-04T14:43:15.157Z,3.13
2019-04-04T14:45:45.490Z,3.17
2019-04-04T14:48:15.688Z,3.57
2019-04-04T14:50:45.821Z,3.43
2019-04-04T14:53:16.043Z,4.70
2019-04-04T14:55:46.324Z,4.50
2019-04-04T14:58:16.485Z,4.57
2019-04-04T15:00:46.686Z,4.80
2019-04-04T15:03:16.963Z,4.00
2019-04-04T15:05:47.200Z,4.60
2019-04-04T15:08:17.403Z,3.87
2019-04-04T15:10:47.529Z,4.00
2019-04-04T15:13:17.743Z,4.93
2019-04-04T15:16:13.236Z,4.27
2019-04-04T15:18:43.457Z,3.53
2019-04-04T15:21:14.645Z,3.37
2019-04-04T15:23:44.943Z,4.20
2019-04-04T15:26:15.164Z,4.20
2019-04-04T15:28:45.460Z,4.03
2019-04-04T15:31:15.617Z,4.67
2019-04-04T15:33:46.800Z,3.93
2019-04-04T15:36:17.181Z,5.10
2019-04-04T15:38:47.469Z,4.40
2019-04-04T15:41:17.681Z,4.57
2019-04-04T15:43:47.920Z,1.73
2019-04-04T15:46:18.370Z,1.97
2019-04-04T15:48:48.663Z,2.00
2019-04-04T15:51:18.991Z,2.10
2019-04-04T15:53:49.112Z,2.33
2019-04-04T15:56:19.478Z,2.83
2019-04-04T15:58:49.901Z,2.83
2019-04-04T16:01:20.009Z,2.80
2019-04-04T16:03:50.304Z,2.73
2019-04-04T16:06:20.549Z,3.00
2019-04-04T16:08:50.667Z,3.00
2019-04-04T16:11:20.900Z,3.50
2019-04-04T16:13:51.182Z,3.17
2019-04-04T16:16:21.438Z,4.50
2019-04-04T16:18:51.625Z,3.90
2019-04-04T16:21:21.934Z,4.03
2019-04-04T16:23:53.077Z,4.87
2019-04-04T16:26:25.841Z,3.03
2019-04-04T16:28:56.118Z,2.60
2019-04-04T16:31:26.409Z,2.30
2019-04-04T16:33:56.643Z,3.03
2019-04-04T16:36:26.841Z,3.10
2019-04-04T16:38:56.969Z,3.70
2019-04-04T16:41:27.289Z,3.30
2019-04-04T16:43:57.450Z,3.40
2019-04-04T16:46:27.740Z,3.50
2019-04-04T16:48:58.017Z,3.90
2019-04-04T16:51:28.255Z,5.53
2019-04-04T16:53:58.442Z,7.17
2019-04-04T16:56:30.409Z,6.60
2019-04-04T16:59:00.566Z,6.27
2019-04-04T17:01:32.871Z,6.40
2019-04-04T17:04:03.563Z,5.37
2019-04-04T17:06:34.282Z,6.00
2019-04-04T17:09:05.047Z,5.87
2019-04-04T17:11:37.129Z,6.63
2019-04-04T17:14:07.560Z,5.80
2019-04-04T17:16:38.792Z,7.40
2019-04-04T17:19:09.024Z,8.03
2019-04-04T17:21:39.265Z,7.27
2019-04-04T17:24:09.504Z,8.30
2019-04-04T17:26:39.798Z,9.00
2019-04-04T17:29:09.951Z,8.77
2019-04-04T17:31:43.582Z,7.83
2019-04-04T17:34:14.782Z,8.87
2019-04-04T17:36:46.816Z,6.50
2019-04-04T17:39:17.119Z,6.37
2019-04-04T17:41:50.790Z,7.00
2019-04-04T17:44:22.861Z,6.93
2019-04-04T17:46:59.137Z,7.23
2019-04-04T17:49:31.721Z,6.00
2019-04-04T17:52:02.050Z,6.40
2019-04-04T17:54:32.447Z,6.53
2019-04-04T17:57:23.444Z,6.57
2019-04-04T18:00:00.109Z,7.07
2019-04-04T18:02:30.633Z,8.30
2019-04-04T18:05:03.178Z,8.37
2019-04-04T18:08:04.969Z,9.57
2019-04-04T18:11:14.975Z,9.00
2019-04-04T18:14:04.307Z,8.83
2019-04-04T18:16:55.988Z,7.87
2019-04-04T18:19:35.854Z,8.07
2019-04-04T18:22:20.823Z,8.10
2019-04-04T18:31:13.744Z,7.97
2019-04-04T18:34:03.235Z,8.83
2019-04-04T18:37:08.257Z,7.70
2019-04-04T18:39:47.602Z,8.20
2019-04-04T18:42:53.289Z,8.63
2019-04-04T18:45:18.396Z,9.40
2019-04-04T18:47:48.710Z,8.47
2019-04-04T18:50:21.643Z,6.90
2019-04-04T18:52:55.014Z,7.07
2019-04-04T18:55:27.475Z,7.00
2019-04-04T18:58:11.833Z,7.07
2019-04-04T19:00:46.648Z,6.17
2019-04-04T19:03:16.869Z,5.93
2019-04-04T19:05:47.090Z,5.50
2019-04-04T19:08:17.357Z,6.13
2019-04-04T19:10:47.638Z,5.20
2019-04-04T19:13:28.989Z,6.20
2019-04-04T19:16:01.978Z,5.23
2019-04-04T19:18:34.006Z,5.90
2019-04-04T19:21:05.290Z,5.97
2019-04-04T19:23:48.582Z,6.53
2019-04-04T19:26:11.008Z,7.00
2019-04-04T19:28:43.668Z,6.93
2019-04-04T19:31:17.235Z,6.40
2019-04-04T19:33:47.418Z,7.03
2019-04-04T19:36:17.622Z,7.37
2019-04-04T19:38:47.866Z,6.50
2019-04-04T19:41:20.007Z,6.57
2019-04-04T19:43:50.086Z,5.83
2019-04-04T19:46:20.604Z,6.30
2019-04-04T19:48:50.896Z,6.37
2019-04-04T19:51:21.059Z,6.27
2019-04-04T19:53:51.399Z,6.53
2019-04-04T19:56:21.670Z,5.73
2019-04-04T19:58:51.983Z,5.73
2019-04-04T20:01:22.190Z,5.07
2019-04-04T20:03:52.411Z,4.57
2019-04-04T20:06:22.658Z,4.80
2019-04-04T20:08:53.707Z,4.53
2019-04-04T20:11:25.997Z,4.00
2019-04-04T20:13:56.183Z,4.30
2019-04-04T20:16:26.344Z,4.60
2019-04-04T20:18:56.477Z,4.03
2019-04-04T20:21:26.618Z,4.30
2019-04-04T20:23:58.640Z,9.27
2019-04-04T20:26:28.866Z,6.30
2019-04-04T20:28:59.041Z,8.17
2019-04-04T20:31:29.326Z,5.60
2019-04-04T20:34:05.663Z,5.30
2019-04-04T20:36:33.942Z,5.00
2019-04-04T20:39:04.799Z,4.23
2019-04-04T20:41:34.947Z,4.90
2019-04-04T20:44:05.083Z,4.97
2019-04-04T20:46:35.823Z,4.10
2019-04-04T20:49:10.219Z,5.43
2019-04-04T20:51:40.295Z,5.90
2019-04-04T20:54:10.523Z,5.93
2019-04-04T20:56:40.862Z,7.90
2019-04-04T20:59:11.179Z,7.47
2019-04-04T21:01:41.284Z,8.47
2019-04-04T21:04:11.502Z,9.87
2019-04-04T21:06:41.841Z,9.57
2019-04-04T21:09:11.985Z,9.50
2019-04-04T21:11:42.286Z,8.07
2019-04-04T21:14:12.386Z,8.30
2019-04-04T21:16:42.613Z,8.00
2019-04-04T21:19:12.833Z,10.23
2019-04-04T21:21:43.095Z,11.63
2019-04-04T21:24:13.188Z,13.33
2019-04-04T21:26:43.511Z,12.70
2019-04-04T21:29:13.779Z,10.90
2019-04-04T21:31:43.928Z,12.83
2019-04-04T21:34:16.983Z,11.33
2019-04-04T21:36:46.827Z,13.13
2019-04-04T21:39:17.034Z,13.10
2019-04-04T21:41:47.241Z,13.03
2019-04-04T21:44:17.446Z,13.47
2019-04-04T21:46:47.684Z,13.13
2019-04-04T21:49:17.944Z,13.23
2019-04-04T21:51:48.281Z,14.03
2019-04-04T21:54:18.612Z,14.33
2019-04-04T21:56:48.773Z,14.90
2019-04-04T21:59:18.934Z,14.43
2019-04-04T22:01:50.218Z,14.37
2019-04-04T22:04:20.402Z,14.63
2019-04-04T22:06:50.676Z,13.87
2019-04-04T22:09:21.034Z,14.53
2019-04-04T22:11:51.381Z,15.77
2019-04-04T22:14:22.363Z,15.63
2019-04-04T22:16:52.832Z,16.23
2019-04-04T22:19:23.077Z,15.83
2019-04-04T22:21:53.258Z,17.03
2019-04-04T22:24:23.513Z,17.43
2019-04-04T22:26:53.838Z,18.27
2019-04-04T22:29:24.044Z,18.87
2019-04-04T22:31:54.384Z,18.47
2019-04-04T22:34:24.531Z,17.77
2019-04-04T22:36:54.695Z,20.10
2019-04-04T22:39:25.001Z,19.23
2019-04-04T22:41:55.181Z,18.37
2019-04-04T22:44:34.490Z,20.00
2019-04-04T22:46:57.185Z,19.50
2019-04-04T22:49:27.410Z,20.90
2019-04-04T22:51:57.529Z,22.30
2019-04-04T22:54:27.742Z,21.90
2019-04-04T22:56:57.918Z,21.63
2019-04-04T22:59:28.178Z,22.40
2019-04-04T23:01:58.531Z,21.73
2019-04-04T23:04:28.675Z,21.57
2019-04-04T23:06:58.881Z,22.40
2019-04-04T23:09:29.121Z,22.80
2019-04-04T23:11:59.262Z,22.70
2019-04-04T23:14:29.447Z,22.50
2019-04-04T23:16:59.694Z,24.77
2019-04-04T23:19:29.906Z,26.13
2019-04-04T23:22:00.023Z,25.50
2019-04-04T23:24:30.351Z,27.87
2019-04-04T23:27:00.628Z,25.90
2019-04-04T23:29:30.792Z,25.90
2019-04-04T23:32:01.062Z,26.07
2019-04-04T23:34:31.291Z,30.73
2019-04-04T23:37:01.510Z,27.67
2019-04-04T23:39:31.759Z,27.53
2019-04-04T23:42:02.693Z,25.93
2019-04-04T23:44:32.826Z,29.03
2019-04-04T23:47:03.064Z,25.50
2019-04-04T23:49:33.321Z,25.20
2019-04-04T23:52:03.366Z,25.67
2019-04-04T23:54:33.640Z,23.67
2019-04-04T23:57:03.912Z,27.70
2019-04-04T23:59:34.070Z,25.87
